createdAt,value
2019-06-10T00:00:37.584Z,17.97
2019-06-10T00:01:37.552Z,17.97
2019-06-10T00:02:37.546Z,17.92
2019-06-10T00:03:37.545Z,17.87
2019-06-10T00:04:37.548Z,17.82
2019-06-10T00:05:37.519Z,17.76
2019-06-10T00:06:37.509Z,17.72
2019-06-10T00:07:37.477Z,17.70
2019-06-10T00:08:37.495Z,17.65
2019-06-10T00:09:37.491Z,17.64
2019-06-10T00:10:37.454Z,17.63
2019-06-10T00:11:37.454Z,17.60
2019-06-10T00:12:37.432Z,17.49
2019-06-10T00:13:37.413Z,17.42
2019-06-10T00:14:37.416Z,17.39
2019-06-10T00:15:37.422Z,17.36
2019-06-10T00:16:37.392Z,17.36
2019-06-10T00:17:52.481Z,17.36
2019-06-10T00:18:42.916Z,17.36
2019-06-10T00:19:40.737Z,17.33
2019-06-10T00:20:37.356Z,17.31
2019-06-10T00:21:37.333Z,17.31
2019-06-10T00:22:37.323Z,17.29
2019-06-10T00:23:37.312Z,17.29
2019-06-10T00:24:37.312Z,17.29
2019-06-10T00:25:37.320Z,17.29
2019-06-10T00:26:37.308Z,17.30
2019-06-10T00:27:37.268Z,17.29
2019-06-10T00:28:37.272Z,17.29
2019-06-10T00:29:37.262Z,17.29
2019-06-10T00:30:37.236Z,17.27
2019-06-10T00:31:37.277Z,17.26
2019-06-10T00:32:37.219Z,17.29
2019-06-10T00:33:37.218Z,17.27
2019-06-10T00:34:37.193Z,17.23
2019-06-10T00:35:37.184Z,17.23
2019-06-10T00:36:37.190Z,17.23
2019-06-10T00:37:37.178Z,17.24
2019-06-10T00:38:37.164Z,17.23
2019-06-10T00:39:37.143Z,17.22
2019-06-10T00:40:37.132Z,17.19
2019-06-10T00:41:37.176Z,17.19
2019-06-10T00:42:37.143Z,17.20
2019-06-10T00:43:37.101Z,17.19
2019-06-10T00:44:37.087Z,17.20
2019-06-10T00:45:37.096Z,17.20
2019-06-10T00:46:37.076Z,17.16
2019-06-10T00:47:37.048Z,17.16
2019-06-10T00:48:37.054Z,17.19
2019-06-10T00:49:37.024Z,17.19
2019-06-10T00:50:37.051Z,17.20
2019-06-10T00:51:37.037Z,17.19
2019-06-10T00:52:36.995Z,17.20
2019-06-10T00:53:37.000Z,17.19
2019-06-10T00:54:36.977Z,17.19
2019-06-10T00:55:36.979Z,17.19
2019-06-10T00:56:36.974Z,17.19
2019-06-10T00:57:36.964Z,17.19
2019-06-10T00:58:36.943Z,17.19
2019-06-10T00:59:36.929Z,17.15
2019-06-10T01:00:36.923Z,17.14
2019-06-10T01:01:36.915Z,17.14
2019-06-10T01:02:36.922Z,17.12
2019-06-10T01:03:36.882Z,17.14
2019-06-10T01:04:36.884Z,17.12
2019-06-10T01:05:36.858Z,17.14
2019-06-10T01:06:36.853Z,17.14
2019-06-10T01:07:36.835Z,17.12
2019-06-10T01:08:36.865Z,17.14
2019-06-10T01:09:36.816Z,17.11
2019-06-10T01:10:36.877Z,17.11
2019-06-10T01:11:36.805Z,17.12
2019-06-10T01:12:36.791Z,17.15
2019-06-10T01:13:36.821Z,17.15
2019-06-10T01:14:36.751Z,17.19
2019-06-10T01:15:36.753Z,17.19
2019-06-10T01:16:36.735Z,17.22
2019-06-10T01:17:36.769Z,17.23
2019-06-10T01:18:38.616Z,17.22
2019-06-10T01:19:36.724Z,17.23
2019-06-10T01:20:36.720Z,17.20
2019-06-10T01:21:36.711Z,17.19
2019-06-10T01:22:36.683Z,17.19
2019-06-10T01:23:36.695Z,17.20
2019-06-10T01:24:36.652Z,17.20
2019-06-10T01:25:36.646Z,17.22
2019-06-10T01:26:36.644Z,17.23
2019-06-10T01:27:36.613Z,17.22
2019-06-10T01:28:36.615Z,17.23
2019-06-10T01:29:36.609Z,17.24
2019-06-10T01:30:36.602Z,17.27
2019-06-10T01:31:36.569Z,17.29
2019-06-10T01:32:36.571Z,17.27
2019-06-10T01:33:36.561Z,17.29
2019-06-10T01:34:36.587Z,17.29
2019-06-10T01:35:36.531Z,17.26
2019-06-10T01:36:36.534Z,17.26
2019-06-10T01:37:36.528Z,17.24
2019-06-10T01:38:36.509Z,17.23
2019-06-10T01:39:36.509Z,17.16
2019-06-10T01:40:36.515Z,17.15
2019-06-10T01:41:36.468Z,17.12
2019-06-10T01:42:36.471Z,17.11
2019-06-10T01:43:36.465Z,17.12
2019-06-10T01:44:36.458Z,17.11
2019-06-10T01:45:36.474Z,17.14
2019-06-10T01:46:36.451Z,17.15
2019-06-10T01:47:36.409Z,17.16
2019-06-10T01:48:44.202Z,17.15
2019-06-10T01:49:37.378Z,17.16
2019-06-10T01:50:36.387Z,17.15
2019-06-10T01:51:36.373Z,17.14
2019-06-10T01:52:36.360Z,17.14
2019-06-10T01:53:36.345Z,17.12
2019-06-10T01:54:36.357Z,17.12
2019-06-10T01:55:36.375Z,17.12
2019-06-10T01:56:36.322Z,17.12
2019-06-10T01:57:36.307Z,17.12
2019-06-10T01:58:36.300Z,17.11
2019-06-10T01:59:36.274Z,17.09
2019-06-10T02:00:36.277Z,17.11
2019-06-10T02:01:36.295Z,17.09
2019-06-10T02:02:36.289Z,17.09
2019-06-10T02:03:36.254Z,17.09
2019-06-10T02:04:36.237Z,17.09
2019-06-10T02:05:36.213Z,17.08
2019-06-10T02:06:36.245Z,17.09
2019-06-10T02:07:36.194Z,17.09
2019-06-10T02:08:36.186Z,17.11
2019-06-10T02:09:36.191Z,17.11
2019-06-10T02:10:36.172Z,17.16
2019-06-10T02:11:36.171Z,17.15
2019-06-10T02:12:36.192Z,17.14
2019-06-10T02:13:36.135Z,17.14
2019-06-10T02:14:36.127Z,17.14
2019-06-10T02:15:36.125Z,17.09
2019-06-10T02:16:36.114Z,17.11
2019-06-10T02:17:36.134Z,17.14
2019-06-10T02:18:36.102Z,17.14
2019-06-10T02:19:36.079Z,17.14
2019-06-10T02:20:36.077Z,17.14
2019-06-10T02:21:36.049Z,17.11
2019-06-10T02:22:36.084Z,17.08
2019-06-10T02:23:36.032Z,17.04
2019-06-10T02:24:36.012Z,17.02
2019-06-10T02:25:36.011Z,17.01
2019-06-10T02:26:35.988Z,16.97
2019-06-10T02:27:35.986Z,16.94
2019-06-10T02:28:36.001Z,16.94
2019-06-10T02:29:35.964Z,16.94
2019-06-10T02:30:45.707Z,16.90
2019-06-10T02:31:37.842Z,16.90
2019-06-10T02:32:37.684Z,16.89
2019-06-10T02:33:36.924Z,16.87
2019-06-10T02:34:42.847Z,16.87
2019-06-10T02:35:43.910Z,16.84
2019-06-10T02:36:37.242Z,16.83
2019-06-10T02:37:38.269Z,16.84
2019-06-10T02:38:39.514Z,16.83
2019-06-10T02:39:39.022Z,16.84
2019-06-10T02:40:36.703Z,16.83
2019-06-10T02:41:36.465Z,16.84
2019-06-10T02:42:36.320Z,16.86
2019-06-10T02:43:37.505Z,16.87
2019-06-10T02:44:37.544Z,16.86
2019-06-10T02:45:37.618Z,16.86
2019-06-10T02:46:36.547Z,16.84
2019-06-10T02:47:37.822Z,16.84
2019-06-10T02:48:35.816Z,16.84
2019-06-10T02:49:55.695Z,16.83
2019-06-10T02:50:36.779Z,16.83
2019-06-10T02:51:36.026Z,16.79
2019-06-10T02:52:38.561Z,16.81
2019-06-10T02:53:36.882Z,16.76
2019-06-10T02:54:36.185Z,16.79
2019-06-10T02:55:35.741Z,16.78
2019-06-10T02:56:36.680Z,16.76
2019-06-10T02:57:39.966Z,16.75
2019-06-10T02:58:39.082Z,16.75
2019-06-10T02:59:36.556Z,16.76
2019-06-10T03:00:43.215Z,16.78
2019-06-10T03:01:38.108Z,16.76
2019-06-10T03:02:36.592Z,16.75
2019-06-10T03:03:43.580Z,16.76
2019-06-10T03:04:37.690Z,16.75
2019-06-10T03:05:40.775Z,16.74
2019-06-10T03:06:40.326Z,16.75
2019-06-10T03:07:35.966Z,16.78
2019-06-10T03:08:36.528Z,16.78
2019-06-10T03:09:35.946Z,16.75
2019-06-10T03:10:37.241Z,16.74
2019-06-10T03:11:37.263Z,16.71
2019-06-10T03:12:35.506Z,16.68
2019-06-10T03:13:35.502Z,16.65
2019-06-10T03:14:35.475Z,16.61
2019-06-10T03:15:35.492Z,16.58
2019-06-10T03:16:35.463Z,16.51
2019-06-10T03:17:35.461Z,16.47
2019-06-10T03:18:35.441Z,16.47
2019-06-10T03:19:47.112Z,16.47
2019-06-10T03:20:36.447Z,16.46
2019-06-10T03:21:35.414Z,16.42
2019-06-10T03:22:35.391Z,16.42
2019-06-10T03:23:35.394Z,16.41
2019-06-10T03:24:35.369Z,16.41
2019-06-10T03:25:35.374Z,16.42
2019-06-10T03:26:35.361Z,16.43
2019-06-10T03:27:35.353Z,16.43
2019-06-10T03:28:35.329Z,16.46
2019-06-10T03:29:35.299Z,16.46
2019-06-10T03:30:47.291Z,16.49
2019-06-10T03:31:42.015Z,16.50
2019-06-10T03:32:40.957Z,16.51
2019-06-10T03:33:41.500Z,16.54
2019-06-10T03:34:41.870Z,16.51
2019-06-10T03:35:36.255Z,16.46
2019-06-10T03:36:35.258Z,16.41
2019-06-10T03:37:35.238Z,16.39
2019-06-10T03:38:37.099Z,16.39
2019-06-10T03:39:35.224Z,16.41
2019-06-10T03:40:35.207Z,16.39
2019-06-10T03:41:35.185Z,16.39
2019-06-10T03:42:35.185Z,16.42
2019-06-10T03:43:35.199Z,16.47
2019-06-10T03:44:35.149Z,16.47
2019-06-10T03:45:35.137Z,16.49
2019-06-10T03:46:35.125Z,16.51
2019-06-10T03:47:35.169Z,16.54
2019-06-10T03:48:35.109Z,16.57
2019-06-10T03:49:49.035Z,16.58
2019-06-10T03:50:36.093Z,16.57
2019-06-10T03:51:35.097Z,16.51
2019-06-10T03:52:35.075Z,16.53
2019-06-10T03:53:35.073Z,16.54
2019-06-10T03:54:35.049Z,16.54
2019-06-10T03:55:35.040Z,16.56
2019-06-10T03:56:35.045Z,16.58
2019-06-10T03:57:35.010Z,16.61
2019-06-10T03:58:35.035Z,16.61
2019-06-10T03:59:34.987Z,16.61
2019-06-10T04:00:37.075Z,16.65
2019-06-10T04:01:34.975Z,16.68
2019-06-10T04:02:34.971Z,16.69
2019-06-10T04:03:35.005Z,16.71
2019-06-10T04:04:34.954Z,16.72
2019-06-10T04:05:34.947Z,16.72
2019-06-10T04:06:34.926Z,16.69
2019-06-10T04:07:34.903Z,16.71
2019-06-10T04:08:34.903Z,16.69
2019-06-10T04:09:34.913Z,16.68
2019-06-10T04:10:34.893Z,16.69
2019-06-10T04:11:35.458Z,16.74
2019-06-10T04:12:34.860Z,16.74
2019-06-10T04:13:34.833Z,16.76
2019-06-10T04:14:34.849Z,16.79
2019-06-10T04:15:34.818Z,16.81
2019-06-10T04:16:34.815Z,16.83
2019-06-10T04:17:34.800Z,16.86
2019-06-10T04:18:34.797Z,16.89
2019-06-10T04:19:34.805Z,16.93
2019-06-10T04:20:34.781Z,16.97
2019-06-10T04:21:34.752Z,17.01
2019-06-10T04:22:34.738Z,17.04
2019-06-10T04:23:34.759Z,17.09
2019-06-10T04:24:34.722Z,17.15
2019-06-10T04:25:34.741Z,17.19
2019-06-10T04:26:34.709Z,17.23
2019-06-10T04:27:34.700Z,17.26
2019-06-10T04:28:34.669Z,17.27
2019-06-10T04:29:34.673Z,17.29
2019-06-10T04:30:34.703Z,17.33
2019-06-10T04:31:34.645Z,17.33
2019-06-10T04:32:34.657Z,17.31
2019-06-10T04:33:34.651Z,17.27
2019-06-10T04:34:34.626Z,17.24
2019-06-10T04:35:34.630Z,17.23
2019-06-10T04:36:34.600Z,17.23
2019-06-10T04:37:34.577Z,17.16
2019-06-10T04:38:34.575Z,17.16
2019-06-10T04:39:34.571Z,17.14
2019-06-10T04:40:34.557Z,17.11
2019-06-10T04:41:34.585Z,17.11
2019-06-10T04:42:34.525Z,17.11
2019-06-10T04:43:34.513Z,17.11
2019-06-10T04:44:34.516Z,17.09
2019-06-10T04:45:34.518Z,17.08
2019-06-10T04:46:34.499Z,17.05
2019-06-10T04:47:34.534Z,17.04
2019-06-10T04:48:34.477Z,17.05
2019-06-10T04:49:34.466Z,17.06
2019-06-10T04:50:42.254Z,17.09
2019-06-10T04:51:35.439Z,17.11
2019-06-10T04:52:34.453Z,17.06
2019-06-10T04:53:34.415Z,17.02
2019-06-10T04:54:34.410Z,17.01
2019-06-10T04:55:34.400Z,17.04
2019-06-10T04:56:34.393Z,17.05
2019-06-10T04:57:34.393Z,17.06
2019-06-10T04:58:34.380Z,17.09
2019-06-10T04:59:34.364Z,17.09
2019-06-10T05:00:34.370Z,17.11
2019-06-10T05:01:34.343Z,17.06
2019-06-10T05:02:34.336Z,17.02
2019-06-10T05:03:34.312Z,16.99
2019-06-10T05:04:34.315Z,16.96
2019-06-10T05:05:34.317Z,16.97
2019-06-10T05:06:34.290Z,16.97
2019-06-10T05:07:37.121Z,17.02
2019-06-10T05:08:34.252Z,17.05
2019-06-10T05:09:34.269Z,17.08
2019-06-10T05:10:34.232Z,17.12
2019-06-10T05:11:34.234Z,17.15
2019-06-10T05:12:34.252Z,17.24
2019-06-10T05:13:34.229Z,17.30
2019-06-10T05:14:34.215Z,17.36
2019-06-10T05:15:35.027Z,17.33
2019-06-10T05:16:35.854Z,17.31
2019-06-10T05:17:34.506Z,17.33
2019-06-10T05:18:34.170Z,17.36
2019-06-10T05:19:34.144Z,17.41
2019-06-10T05:20:51.038Z,17.46
2019-06-10T05:21:35.108Z,17.48
2019-06-10T05:22:34.112Z,17.46
2019-06-10T05:23:34.144Z,17.44
2019-06-10T05:24:34.556Z,17.41
2019-06-10T05:25:34.107Z,17.38
2019-06-10T05:26:34.060Z,17.36
2019-06-10T05:27:34.060Z,17.36
2019-06-10T05:28:34.440Z,17.34
2019-06-10T05:29:34.279Z,17.33
2019-06-10T05:30:34.242Z,17.34
2019-06-10T05:31:35.085Z,17.33
2019-06-10T05:32:34.049Z,17.27
2019-06-10T05:33:33.988Z,17.24
2019-06-10T05:34:34.761Z,17.14
2019-06-10T05:35:34.120Z,17.04
2019-06-10T05:36:34.590Z,17.02
2019-06-10T05:37:34.086Z,17.02
2019-06-10T05:38:35.279Z,17.01
2019-06-10T05:39:35.163Z,17.04
2019-06-10T05:40:34.349Z,16.99
2019-06-10T05:41:35.093Z,17.05
2019-06-10T05:42:35.959Z,17.15
2019-06-10T05:43:34.653Z,17.26
2019-06-10T05:44:34.618Z,17.33
2019-06-10T05:45:35.118Z,17.41
2019-06-10T05:46:35.045Z,17.49
2019-06-10T05:47:35.825Z,17.52
2019-06-10T05:48:35.165Z,17.59
2019-06-10T05:49:36.092Z,17.60
2019-06-10T05:50:34.947Z,17.63
2019-06-10T05:51:35.393Z,17.65
2019-06-10T05:52:35.105Z,17.68
2019-06-10T05:53:35.492Z,17.71
2019-06-10T05:54:35.338Z,17.71
2019-06-10T05:55:35.174Z,17.72
2019-06-10T05:56:35.346Z,17.68
2019-06-10T05:57:35.465Z,17.59
2019-06-10T05:58:35.841Z,17.48
2019-06-10T05:59:34.535Z,17.51
2019-06-10T06:00:35.424Z,17.65
2019-06-10T06:01:37.955Z,17.78
2019-06-10T06:02:35.481Z,17.87
2019-06-10T06:03:36.893Z,17.98
2019-06-10T06:04:34.673Z,18.05
2019-06-10T06:05:36.079Z,18.15
2019-06-10T06:06:35.325Z,18.25
2019-06-10T06:07:35.373Z,18.29
2019-06-10T06:08:35.436Z,18.41
2019-06-10T06:09:35.237Z,18.55
2019-06-10T06:10:35.956Z,18.56
2019-06-10T06:11:35.271Z,18.52
2019-06-10T06:12:34.553Z,18.35
2019-06-10T06:13:35.873Z,18.25
2019-06-10T06:14:35.604Z,18.15
2019-06-10T06:15:35.787Z,18.03
2019-06-10T06:16:36.118Z,18.10
2019-06-10T06:17:35.352Z,18.08
2019-06-10T06:18:36.327Z,18.15
2019-06-10T06:19:36.917Z,18.28
2019-06-10T06:20:35.930Z,18.47
2019-06-10T06:21:41.654Z,18.65
2019-06-10T06:22:35.655Z,18.77
2019-06-10T06:23:35.501Z,18.84
2019-06-10T06:24:35.341Z,18.98
2019-06-10T06:25:42.055Z,19.00
2019-06-10T06:26:37.917Z,19.00
2019-06-10T06:27:35.085Z,19.21
2019-06-10T06:28:35.951Z,19.30
2019-06-10T06:29:33.919Z,19.34
2019-06-10T06:30:35.821Z,19.37
2019-06-10T06:31:36.016Z,19.21
2019-06-10T06:32:36.116Z,19.18
2019-06-10T06:33:37.653Z,19.40
2019-06-10T06:34:35.845Z,19.40
2019-06-10T06:35:36.691Z,19.82
2019-06-10T06:36:36.585Z,19.82
2019-06-10T06:37:37.435Z,19.91
2019-06-10T06:38:35.290Z,19.94
2019-06-10T06:39:35.093Z,19.67
2019-06-10T06:40:35.613Z,19.31
2019-06-10T06:41:34.558Z,19.16
2019-06-10T06:42:35.060Z,19.09
2019-06-10T06:43:39.973Z,18.78
2019-06-10T06:44:37.336Z,18.70
2019-06-10T06:45:35.867Z,18.53
2019-06-10T06:46:37.518Z,18.52
2019-06-10T06:47:35.706Z,18.77
2019-06-10T06:48:36.993Z,18.74
2019-06-10T06:49:35.502Z,18.63
2019-06-10T06:50:35.808Z,18.86
2019-06-10T06:51:43.926Z,19.69
2019-06-10T06:53:04.218Z,20.44
2019-06-10T06:53:44.130Z,21.51
2019-06-10T06:54:36.105Z,22.55
2019-06-10T06:55:33.783Z,23.18
2019-06-10T06:56:36.101Z,23.84
2019-06-10T06:57:34.196Z,23.66
2019-06-10T06:58:35.165Z,23.95
2019-06-10T06:59:34.236Z,24.54
2019-06-10T07:00:48.916Z,24.28
2019-06-10T07:01:37.321Z,24.73
2019-06-10T07:02:34.590Z,25.51
2019-06-10T07:03:35.294Z,25.31
2019-06-10T07:04:35.482Z,24.96
2019-06-10T07:05:35.531Z,25.16
2019-06-10T07:06:34.515Z,26.00
2019-06-10T07:07:34.549Z,25.62
2019-06-10T07:08:34.873Z,25.96
2019-06-10T07:09:34.643Z,26.15
2019-06-10T07:10:34.367Z,25.58
2019-06-10T07:11:35.404Z,25.06
2019-06-10T07:12:33.756Z,25.26
2019-06-10T07:13:35.401Z,24.70
2019-06-10T07:14:36.805Z,23.83
2019-06-10T07:15:34.419Z,24.66
2019-06-10T07:16:34.504Z,25.55
2019-06-10T07:17:34.549Z,26.59
2019-06-10T07:18:38.947Z,27.08
2019-06-10T07:19:35.112Z,27.85
2019-06-10T07:20:36.268Z,26.15
2019-06-10T07:21:36.179Z,25.93
2019-06-10T07:22:36.472Z,25.41
2019-06-10T07:23:36.082Z,25.11
2019-06-10T07:24:35.749Z,24.88
2019-06-10T07:25:36.668Z,24.33
2019-06-10T07:26:35.737Z,24.20
2019-06-10T07:27:35.831Z,24.54
2019-06-10T07:28:35.785Z,24.89
2019-06-10T07:29:34.281Z,24.84
2019-06-10T07:30:35.820Z,24.85
2019-06-10T07:31:36.330Z,24.58
2019-06-10T07:32:34.300Z,24.36
2019-06-10T07:33:34.842Z,24.36
2019-06-10T07:34:36.363Z,24.84
2019-06-10T07:35:34.231Z,25.48
2019-06-10T07:36:34.467Z,26.77
2019-06-10T07:37:34.585Z,27.58
2019-06-10T07:38:34.021Z,27.83
2019-06-10T07:39:34.670Z,28.04
2019-06-10T07:40:33.507Z,28.39
2019-06-10T07:41:34.046Z,28.70
2019-06-10T07:42:33.263Z,28.41
2019-06-10T07:43:37.112Z,27.65
2019-06-10T07:44:34.910Z,28.52
2019-06-10T07:45:33.780Z,28.08
2019-06-10T07:46:33.552Z,27.59
2019-06-10T07:47:33.835Z,27.58
2019-06-10T07:48:34.463Z,27.40
2019-06-10T07:49:33.850Z,26.81
2019-06-10T07:50:33.397Z,25.78
2019-06-10T07:51:34.182Z,25.06
2019-06-10T07:52:33.188Z,25.22
2019-06-10T07:53:34.404Z,25.54
2019-06-10T07:54:33.279Z,26.09
2019-06-10T07:55:33.237Z,26.52
2019-06-10T07:56:37.770Z,26.56
2019-06-10T07:57:34.764Z,26.21
2019-06-10T07:58:34.982Z,26.19
2019-06-10T07:59:33.777Z,26.52
2019-06-10T08:00:33.701Z,26.75
2019-06-10T08:01:33.298Z,26.52
2019-06-10T08:02:33.987Z,26.85
2019-06-10T08:03:33.330Z,27.77
2019-06-10T08:04:33.604Z,27.47
2019-06-10T08:05:34.102Z,27.42
2019-06-10T08:06:34.049Z,27.68
2019-06-10T08:07:33.520Z,27.67
2019-06-10T08:08:33.078Z,28.01
2019-06-10T08:09:33.664Z,28.01
2019-06-10T08:10:32.812Z,27.20
2019-06-10T08:11:33.214Z,26.63
2019-06-10T08:12:32.602Z,26.16
2019-06-10T08:13:32.583Z,26.23
2019-06-10T08:14:32.949Z,26.60
2019-06-10T08:15:32.636Z,26.95
2019-06-10T08:16:32.759Z,27.47
2019-06-10T08:17:32.777Z,27.45
2019-06-10T08:18:39.444Z,26.85
2019-06-10T08:19:38.252Z,26.21
2019-06-10T08:20:33.208Z,25.69
2019-06-10T08:21:32.445Z,25.28
2019-06-10T08:22:37.226Z,25.23
2019-06-10T08:23:33.243Z,25.31
2019-06-10T08:24:32.963Z,26.25
2019-06-10T08:25:32.815Z,27.35
2019-06-10T08:26:32.477Z,28.17
2019-06-10T08:27:33.607Z,28.86
2019-06-10T08:28:33.255Z,29.47
2019-06-10T08:29:33.061Z,29.97
2019-06-10T08:30:32.965Z,30.44
2019-06-10T08:31:33.227Z,29.68
2019-06-10T08:32:33.480Z,30.27
2019-06-10T08:33:33.068Z,29.50
2019-06-10T08:34:32.952Z,28.56
2019-06-10T08:35:41.461Z,28.41
2019-06-10T08:36:33.500Z,28.97
2019-06-10T08:37:33.216Z,30.00
2019-06-10T08:38:32.918Z,30.06
2019-06-10T08:39:33.519Z,30.72
2019-06-10T08:40:32.593Z,29.98
2019-06-10T08:41:32.354Z,28.70
2019-06-10T08:42:32.480Z,28.84
2019-06-10T08:43:33.068Z,28.86
2019-06-10T08:44:32.740Z,28.74
2019-06-10T08:45:33.359Z,29.76
2019-06-10T08:46:32.898Z,30.54
2019-06-10T08:47:32.647Z,30.31
2019-06-10T08:48:32.903Z,30.34
2019-06-10T08:49:32.775Z,29.61
2019-06-10T08:50:33.700Z,29.84
2019-06-10T08:51:32.481Z,28.15
2019-06-10T08:52:49.544Z,28.26
2019-06-10T08:53:33.258Z,28.29
2019-06-10T08:54:32.410Z,28.44
2019-06-10T08:55:33.452Z,27.92
2019-06-10T08:56:32.743Z,27.27
2019-06-10T08:57:33.503Z,27.14
2019-06-10T08:58:33.030Z,27.18
2019-06-10T08:59:32.601Z,27.59
2019-06-10T09:00:33.253Z,27.90
2019-06-10T09:01:33.420Z,28.17
2019-06-10T09:02:33.421Z,28.51
2019-06-10T09:03:32.421Z,28.91
2019-06-10T09:04:33.088Z,28.91
2019-06-10T09:05:32.402Z,29.32
2019-06-10T09:06:32.970Z,29.79
2019-06-10T09:07:32.378Z,29.94
2019-06-10T09:08:32.614Z,30.08
2019-06-10T09:09:33.046Z,29.45
2019-06-10T09:10:33.946Z,30.32
2019-06-10T09:11:32.902Z,30.88
2019-06-10T09:12:36.393Z,31.36
2019-06-10T09:13:33.728Z,31.76
2019-06-10T09:14:32.650Z,32.21
2019-06-10T09:15:32.498Z,32.63
2019-06-10T09:16:32.929Z,33.04
2019-06-10T09:17:33.747Z,32.89
2019-06-10T09:18:33.891Z,32.77
2019-06-10T09:19:33.187Z,32.73
2019-06-10T09:20:33.123Z,32.85
2019-06-10T09:21:33.022Z,33.34
2019-06-10T09:22:32.699Z,32.75
2019-06-10T09:23:33.127Z,32.49
2019-06-10T09:24:32.835Z,32.77
2019-06-10T09:25:33.399Z,32.90
2019-06-10T09:26:33.766Z,31.76
2019-06-10T09:27:32.777Z,31.31
2019-06-10T09:28:32.811Z,31.58
2019-06-10T09:29:32.898Z,32.34
2019-06-10T09:30:33.411Z,32.93
2019-06-10T09:31:33.132Z,33.31
2019-06-10T09:32:32.492Z,33.65
2019-06-10T09:33:33.130Z,33.92
2019-06-10T09:34:33.089Z,34.05
2019-06-10T09:35:32.332Z,33.62
2019-06-10T09:36:32.515Z,32.51
2019-06-10T09:37:32.076Z,31.73
2019-06-10T09:38:33.336Z,31.24
2019-06-10T09:39:32.898Z,31.03
2019-06-10T09:40:33.827Z,31.12
2019-06-10T09:41:40.236Z,31.25
2019-06-10T09:42:33.314Z,31.39
2019-06-10T09:43:33.356Z,31.21
2019-06-10T09:44:33.369Z,31.34
2019-06-10T09:45:33.196Z,31.54
2019-06-10T09:46:33.067Z,31.47
2019-06-10T09:47:34.028Z,31.62
2019-06-10T09:48:33.647Z,31.18
2019-06-10T09:49:33.017Z,30.97
2019-06-10T09:50:33.390Z,30.35
2019-06-10T09:51:32.426Z,30.16
2019-06-10T09:52:32.854Z,29.93
2019-06-10T09:53:41.414Z,29.93
2019-06-10T09:54:33.558Z,29.93
2019-06-10T09:55:32.900Z,30.73
2019-06-10T09:56:33.150Z,31.56
2019-06-10T09:57:32.147Z,32.26
2019-06-10T09:58:32.945Z,32.85
2019-06-10T09:59:32.221Z,33.46
2019-06-10T10:00:33.154Z,33.86
2019-06-10T10:01:32.642Z,34.47
2019-06-10T10:02:33.235Z,34.32
2019-06-10T10:03:32.887Z,34.01
2019-06-10T10:04:32.720Z,34.13
2019-06-10T10:05:33.688Z,34.39
2019-06-10T10:06:32.687Z,34.60
2019-06-10T10:07:32.460Z,35.29
2019-06-10T10:08:32.736Z,35.42
2019-06-10T10:09:34.427Z,34.92
2019-06-10T10:10:32.719Z,34.70
2019-06-10T10:11:32.116Z,34.39
2019-06-10T10:12:32.675Z,34.24
2019-06-10T10:13:34.955Z,33.87
2019-06-10T10:14:33.328Z,33.83
2019-06-10T10:15:34.427Z,33.61
2019-06-10T10:16:33.970Z,33.96
2019-06-10T10:17:33.418Z,33.86
2019-06-10T10:18:33.485Z,33.46
2019-06-10T10:19:31.063Z,33.52
2019-06-10T10:20:33.965Z,34.06
2019-06-10T10:21:31.063Z,33.95
2019-06-10T10:22:33.338Z,34.30
2019-06-10T10:23:48.407Z,33.28
2019-06-10T10:24:34.047Z,31.59
2019-06-10T10:25:32.826Z,30.61
2019-06-10T10:26:31.366Z,30.65
2019-06-10T10:27:32.393Z,31.14
2019-06-10T10:28:33.211Z,31.49
2019-06-10T10:29:32.836Z,31.90
2019-06-10T10:30:33.226Z,32.04
2019-06-10T10:31:32.438Z,32.71
2019-06-10T10:32:33.273Z,33.05
2019-06-10T10:33:33.353Z,33.50
2019-06-10T10:34:33.184Z,33.45
2019-06-10T10:35:32.636Z,32.80
2019-06-10T10:36:33.368Z,32.18
2019-06-10T10:37:32.295Z,31.59
2019-06-10T10:38:34.209Z,31.92
2019-06-10T10:39:32.742Z,31.87
2019-06-10T10:40:32.555Z,32.11
2019-06-10T10:41:32.345Z,32.07
2019-06-10T10:42:42.702Z,32.04
2019-06-10T10:43:34.239Z,31.81
2019-06-10T10:44:32.008Z,31.51
2019-06-10T10:45:31.179Z,31.42
2019-06-10T10:46:32.613Z,31.62
2019-06-10T10:47:33.557Z,32.52
2019-06-10T10:48:33.206Z,32.01
2019-06-10T10:49:30.828Z,30.62
2019-06-10T10:50:30.788Z,29.82
2019-06-10T10:51:32.631Z,29.59
2019-06-10T10:52:33.051Z,29.36
2019-06-10T10:53:32.845Z,28.76
2019-06-10T10:54:35.958Z,29.04
2019-06-10T10:55:32.922Z,28.48
2019-06-10T10:56:30.731Z,28.14
2019-06-10T10:57:32.947Z,28.01
2019-06-10T10:58:33.083Z,28.12
2019-06-10T10:59:33.233Z,28.49
2019-06-10T11:00:36.615Z,28.22
2019-06-10T11:01:33.410Z,27.68
2019-06-10T11:02:32.221Z,27.35
2019-06-10T11:03:33.345Z,27.39
2019-06-10T11:04:32.797Z,27.63
2019-06-10T11:05:33.119Z,27.26
2019-06-10T11:06:32.299Z,26.93
2019-06-10T11:07:33.318Z,26.75
2019-06-10T11:08:32.667Z,26.84
2019-06-10T11:09:32.879Z,26.92
2019-06-10T11:10:33.007Z,27.27
2019-06-10T11:11:33.130Z,27.51
2019-06-10T11:12:33.069Z,27.30
2019-06-10T11:13:32.702Z,27.27
2019-06-10T11:14:33.297Z,27.17
2019-06-10T11:15:33.823Z,27.05
2019-06-10T11:16:33.080Z,27.37
2019-06-10T11:17:33.458Z,27.30
2019-06-10T11:18:30.507Z,27.25
2019-06-10T11:19:32.389Z,27.17
2019-06-10T11:20:31.533Z,27.08
2019-06-10T11:21:32.900Z,26.73
2019-06-10T11:22:32.744Z,27.05
2019-06-10T11:23:33.405Z,27.37
2019-06-10T11:24:37.814Z,27.59
2019-06-10T11:25:33.241Z,27.63
2019-06-10T11:26:32.852Z,27.29
2019-06-10T11:27:32.992Z,27.32
2019-06-10T11:28:32.132Z,27.32
2019-06-10T11:29:32.696Z,27.51
2019-06-10T11:30:32.496Z,27.86
2019-06-10T11:31:32.708Z,28.02
2019-06-10T11:32:32.621Z,28.37
2019-06-10T11:33:32.662Z,28.29
2019-06-10T11:34:30.357Z,28.35
2019-06-10T11:35:30.330Z,28.14
2019-06-10T11:36:30.326Z,28.20
2019-06-10T11:37:30.306Z,28.07
2019-06-10T11:38:32.600Z,27.98
2019-06-10T11:39:30.303Z,27.90
2019-06-10T11:40:30.281Z,27.83
2019-06-10T11:41:32.392Z,27.55
2019-06-10T11:42:30.254Z,27.49
2019-06-10T11:43:32.886Z,27.52
2019-06-10T11:44:30.239Z,27.59
2019-06-10T11:45:32.691Z,27.75
2019-06-10T11:46:32.346Z,27.55
2019-06-10T11:47:30.339Z,27.47
2019-06-10T11:48:32.564Z,27.60
2019-06-10T11:49:30.175Z,27.60
2019-06-10T11:50:30.220Z,27.71
2019-06-10T11:51:30.147Z,28.00
2019-06-10T11:52:33.348Z,27.92
2019-06-10T11:53:34.585Z,27.83
2019-06-10T11:54:32.572Z,27.78
2019-06-10T11:55:30.137Z,28.00
2019-06-10T11:56:30.112Z,28.01
2019-06-10T11:57:32.824Z,27.90
2019-06-10T11:58:30.116Z,27.70
2019-06-10T11:59:32.582Z,27.63
2019-06-10T12:00:32.901Z,27.54
2019-06-10T12:01:30.931Z,27.68
2019-06-10T12:02:30.048Z,27.74
2019-06-10T12:03:30.039Z,28.02
2019-06-10T12:04:30.024Z,28.39
2019-06-10T12:05:32.466Z,28.27
2019-06-10T12:06:30.024Z,28.45
2019-06-10T12:07:29.990Z,28.79
2019-06-10T12:08:32.664Z,28.69
2019-06-10T12:09:29.976Z,28.70
2019-06-10T12:10:32.794Z,28.66
2019-06-10T12:11:29.971Z,28.51
2019-06-10T12:12:33.427Z,28.51
2019-06-10T12:13:29.927Z,28.75
2019-06-10T12:14:32.399Z,28.93
2019-06-10T12:15:34.772Z,28.69
2019-06-10T12:17:15.523Z,27.95
2019-06-10T12:17:43.642Z,27.75
2019-06-10T12:18:33.076Z,27.60
2019-06-10T12:19:29.875Z,27.27
2019-06-10T12:20:29.876Z,27.14
2019-06-10T12:21:32.853Z,27.26
2019-06-10T12:22:29.851Z,27.12
2019-06-10T12:23:29.865Z,27.39
2019-06-10T12:24:32.824Z,27.85
2019-06-10T12:25:36.739Z,28.70
2019-06-10T12:26:32.829Z,29.26
2019-06-10T12:27:29.823Z,29.82
2019-06-10T12:28:32.475Z,29.53
2019-06-10T12:29:29.764Z,29.61
2019-06-10T12:30:29.764Z,29.39
2019-06-10T12:31:29.751Z,29.20
2019-06-10T12:32:29.742Z,28.84
2019-06-10T12:33:29.762Z,28.32
2019-06-10T12:34:32.967Z,28.47
2019-06-10T12:35:29.715Z,28.49
2019-06-10T12:36:29.704Z,28.63
2019-06-10T12:37:29.684Z,28.52
2019-06-10T12:38:32.503Z,28.52
2019-06-10T12:39:29.688Z,28.33
2019-06-10T12:40:29.654Z,28.27
2019-06-10T12:41:29.647Z,28.08
2019-06-10T12:42:29.644Z,27.95
2019-06-10T12:43:29.630Z,28.00
2019-06-10T12:44:29.643Z,27.90
2019-06-10T12:45:29.610Z,27.60
2019-06-10T12:46:29.606Z,27.44
2019-06-10T12:47:29.589Z,27.30
2019-06-10T12:48:29.590Z,27.42
2019-06-10T12:49:31.997Z,27.51
2019-06-10T12:50:30.187Z,27.51
2019-06-10T12:51:29.548Z,27.39
2019-06-10T12:52:29.549Z,27.39